Time;durP1;ratioP1;P1;durP2;ratioP2;P2;SDS_P1;SDS_P2;PMS_P1;PMS_P2;Temp;Humidity;BMP_temperature;BMP_pressure;BME280_temperature;BME280_humidity;BME280_pressure;Samples;Min_cycle;Max_cycle;Signal;HPM_P1;HPM_P2
2023/11/11 00:00:40;;;;;;;5.53;3.67;;;;;;;15.23;52.59;99733.44;4962820;28;20088;-57
2023/11/11 00:03:06;;;;;;;6.25;3.55;;;;;;;15.24;53.30;99735.13;4997590;28;20058;-57
2023/11/11 00:05:31;;;;;;;6.63;2.60;;;;;;;15.21;52.34;99740.03;5000644;28;20030;-57
2023/11/11 00:07:57;;;;;;;4.82;3.30;;;;;;;15.21;51.99;99731.94;5017752;28;20058;-57
2023/11/11 00:10:22;;;;;;;8.05;3.47;;;;;;;15.22;52.93;99747.94;5017850;28;20030;-57
2023/11/11 00:12:48;;;;;;;8.45;4.05;;;;;;;15.20;52.20;99744.59;4996827;28;20037;-57
2023/11/11 00:15:13;;;;;;;6.63;3.25;;;;;;;15.19;51.71;99753.69;4995341;28;20046;-57
2023/11/11 00:17:39;;;;;;;5.15;3.70;;;;;;;15.18;52.67;99759.28;5013155;28;20057;-57
2023/11/11 00:20:08;;;;;;;8.23;3.72;;;;;;;15.16;52.58;99765.69;5012876;28;20026;-57
2023/11/11 00:22:33;;;;;;;5.43;3.40;;;;;;;15.13;53.12;99759.84;5012728;28;20064;-57
2023/11/11 00:24:58;;;;;;;5.78;3.70;;;;;;;15.14;52.78;99767.75;4995354;28;20062;-57
2023/11/11 00:27:26;;;;;;;10.57;4.35;;;;;;;15.11;52.05;99762.72;4995813;28;20026;-57
2023/11/11 00:29:51;;;;;;;7.47;3.85;;;;;;;15.11;52.31;99761.88;5012832;28;20096;-57
2023/11/11 00:32:17;;;;;;;11.63;4.63;;;;;;;15.09;52.07;99764.78;5013018;28;20037;-57
2023/11/11 00:34:44;;;;;;;8.93;4.15;;;;;;;15.07;52.77;99766.78;4995796;28;20104;-57
2023/11/11 00:37:10;;;;;;;8.60;4.20;;;;;;;15.07;52.45;99772.19;5012844;28;20146;-57
2023/11/11 00:39:35;;;;;;;8.55;3.78;;;;;;;15.07;53.08;99774.88;5012997;28;20083;-57
2023/11/11 00:42:01;;;;;;;8.05;3.65;;;;;;;15.06;51.84;99758.91;4995643;28;20506;-57
2023/11/11 00:44:27;;;;;;;9.00;3.60;;;;;;;15.07;51.49;99776.78;5012792;28;20484;-57
2023/11/11 00:46:52;;;;;;;9.02;4.72;;;;;;;15.06;52.56;99775.91;4998693;28;20041;-57
2023/11/11 00:49:18;;;;;;;10.55;4.38;;;;;;;15.07;51.78;99791.06;4999086;28;20038;-57
2023/11/11 00:51:43;;;;;;;7.28;4.78;;;;;;;15.08;52.22;99800.84;4982427;28;20041;-57
2023/11/11 00:54:09;;;;;;;10.05;4.53;;;;;;;15.09;52.78;99799.84;4982393;28;20449;-57
2023/11/11 00:56:38;;;;;;;7.53;4.20;;;;;;;15.08;51.60;99810.78;4998720;28;20055;-57
2023/11/11 00:59:05;;;;;;;8.15;5.00;;;;;;;15.08;51.98;99821.56;4998615;28;20117;-57
2023/11/11 01:01:30;;;;;;;9.60;5.90;;;;;;;15.08;53.11;99824.28;5016003;28;20042;-57
2023/11/11 01:03:55;;;;;;;10.77;5.85;;;;;;;15.05;52.55;99816.53;4998354;28;20037;-57
2023/11/11 01:06:21;;;;;;;13.40;5.15;;;;;;;15.02;52.23;99827.69;5015931;28;20441;-57
2023/11/11 01:08:47;;;;;;;8.38;4.55;;;;;;;14.99;52.30;99823.50;5015903;28;20486;-57
2023/11/11 01:11:13;;;;;;;11.38;6.40;;;;;;;14.99;51.66;99828.09;4998681;28;20513;-57
2023/11/11 01:13:39;;;;;;;11.55;5.00;;;;;;;14.99;53.31;99828.09;4998241;28;20056;-57
2023/11/11 01:16:04;;;;;;;9.40;5.20;;;;;;;14.98;52.01;99831.78;5015962;28;20497;-57
2023/11/11 01:18:30;;;;;;;11.48;5.65;;;;;;;14.98;52.14;99837.19;5015710;28;20034;-57
2023/11/11 01:20:59;;;;;;;8.38;4.53;;;;;;;15.00;52.97;99835.13;4997810;28;20061;-57
2023/11/11 01:23:25;;;;;;;8.88;4.75;;;;;;;15.01;52.63;99842.22;4982021;28;20048;-57
2023/11/11 01:25:50;;;;;;;9.05;4.40;;;;;;;15.01;51.85;99831.44;4998127;28;20501;-57
2023/11/11 01:28:18;;;;;;;9.43;4.88;;;;;;;15.04;51.62;99845.41;5015698;28;20117;-57
2023/11/11 01:30:44;;;;;;;9.52;4.88;;;;;;;15.02;53.07;99833.09;4998367;28;20034;-57
2023/11/11 01:33:10;;;;;;;7.95;4.28;;;;;;;15.06;52.04;99846.06;5015562;28;20044;-57
2023/11/11 01:35:36;;;;;;;9.73;4.40;;;;;;;15.05;52.49;99851.59;5015380;28;20409;-57
2023/11/11 01:38:01;;;;;;;6.47;3.40;;;;;;;15.04;51.31;99844.56;5015519;28;20034;-57
2023/11/11 01:40:26;;;;;;;7.30;4.00;;;;;;;15.04;52.40;99852.66;5014400;28;20061;-57
2023/11/11 01:42:52;;;;;;;7.00;3.47;;;;;;;15.06;51.54;99866.78;4997836;28;20497;-57
2023/11/11 01:45:18;;;;;;;8.35;4.00;;;;;;;15.04;52.54;99855.34;5015249;28;20509;-57
2023/11/11 01:47:44;;;;;;;9.35;3.58;;;;;;;15.01;51.66;99853.00;4997969;28;20121;-57
2023/11/11 01:50:10;;;;;;;7.57;3.10;;;;;;;14.99;51.37;99860.44;4997666;28;20113;-57
2023/11/11 01:52:35;;;;;;;9.90;3.65;;;;;;;14.97;52.74;99862.47;4997612;28;20164;-57
2023/11/11 01:55:01;;;;;;;6.80;3.53;;;;;;;14.91;51.85;99860.50;4981078;28;20109;-57
2023/11/11 01:57:27;;;;;;;4.10;3.08;;;;;;;14.91;51.71;99865.88;4997546;28;20116;-60
2023/11/11 01:59:54;;;;;;;5.90;3.03;;;;;;;14.90;52.82;99870.47;5015025;28;20032;-58
2023/11/11 02:02:20;;;;;;;4.80;2.67;;;;;;;14.89;53.08;99866.06;4997513;28;20018;-57
2023/11/11 02:04:45;;;;;;;7.38;3.03;;;;;;;14.89;51.80;99870.63;5014816;28;20021;-57
2023/11/11 02:07:10;;;;;;;3.97;2.30;;;;;;;14.89;52.44;99881.41;5014821;28;20053;-57
2023/11/11 02:09:36;;;;;;;6.93;2.60;;;;;;;14.88;52.89;99885.16;5014852;28;20026;-57
2023/11/11 02:12:02;;;;;;;3.88;2.67;;;;;;;14.88;52.93;99887.84;4997353;28;20021;-57
2023/11/11 02:14:27;;;;;;;6.07;2.20;;;;;;;14.88;52.53;99885.16;5014864;28;20109;-58
2023/11/11 02:16:53;;;;;;;6.57;2.17;;;;;;;14.89;51.07;99886.81;4997145;28;20017;-57
2023/11/11 02:19:18;;;;;;;6.82;1.70;;;;;;;14.88;52.38;99891.34;4997268;28;20018;-57
2023/11/11 02:21:43;;;;;;;2.47;1.73;;;;;;;14.88;52.20;99894.06;5014498;28;20108;-57
2023/11/11 02:24:10;;;;;;;8.48;2.10;;;;;;;14.88;51.33;99888.66;4997468;28;20045;-57
2023/11/11 02:26:36;;;;;;;1.65;1.00;;;;;;;14.88;52.55;99895.94;4981349;28;20465;-57
2023/11/11 02:29:01;;;;;;;3.80;1.05;;;;;;;14.86;51.88;99897.94;4997972;28;20096;-57
2023/11/11 02:31:26;;;;;;;3.10;1.30;;;;;;;14.88;51.39;99902.13;5014590;28;20026;-57
2023/11/11 02:33:52;;;;;;;1.20;0.80;;;;;;;14.87;51.50;99911.25;5014212;28;20054;-57
2023/11/11 02:36:19;;;;;;;2.20;0.93;;;;;;;14.90;51.17;99918.16;5014123;28;20025;-57
2023/11/11 02:38:44;;;;;;;2.20;0.90;;;;;;;14.90;51.55;99920.84;5014100;28;20048;-57
2023/11/11 02:41:10;;;;;;;3.28;1.70;;;;;;;14.88;52.58;99921.00;5014443;28;20034;-57
2023/11/11 02:43:36;;;;;;;3.45;1.17;;;;;;;14.88;51.14;99933.69;5014135;28;20029;-57
2023/11/11 02:46:01;;;;;;;5.97;1.40;;;;;;;14.92;52.59;99935.00;4996580;28;20022;-58
2023/11/11 02:48:26;;;;;;;2.45;1.10;;;;;;;14.95;52.60;99929.25;5014100;28;20030;-57
2023/11/11 02:50:52;;;;;;;3.63;1.02;;;;;;;14.95;51.97;99924.69;4996523;28;20112;-57
2023/11/11 02:53:17;;;;;;;1.85;0.90;;;;;;;14.97;52.42;99932.59;5013464;28;20030;-57
2023/11/11 02:55:43;;;;;;;2.47;0.98;;;;;;;14.95;51.96;99929.25;5014126;28;20112;-57
2023/11/11 02:58:08;;;;;;;5.35;1.38;;;;;;;14.93;52.40;99933.97;5014116;28;20029;-57
2023/11/11 03:00:33;;;;;;;3.85;1.50;;;;;;;14.97;52.47;99937.97;4988144;28;20083;-57
2023/11/11 03:02:59;;;;;;;2.17;1.40;;;;;;;14.94;52.44;99932.94;4996142;28;20508;-57
2023/11/11 03:05:25;;;;;;;2.58;1.50;;;;;;;14.92;51.67;99935.00;5013839;28;20104;-57
2023/11/11 03:07:50;;;;;;;2.65;1.33;;;;;;;14.91;52.02;99949.47;4996259;28;20079;-57
2023/11/11 03:10:15;;;;;;;5.13;1.20;;;;;;;14.91;52.29;99952.16;5013807;28;20057;-57
2023/11/11 03:12:41;;;;;;;3.08;1.30;;;;;;;14.89;51.30;99946.13;4996215;28;20401;-58
2023/11/11 03:15:09;;;;;;;6.45;1.52;;;;;;;14.90;52.53;99953.22;4995920;28;20509;-57
2023/11/11 03:17:35;;;;;;;1.45;1.10;;;;;;;14.88;52.15;99950.66;5013878;28;20044;-57
2023/11/11 03:20:00;;;;;;;3.78;1.10;;;;;;;14.88;51.94;99958.75;5013251;28;20034;-57
2023/11/11 03:22:26;;;;;;;3.85;1.17;;;;;;;14.88;52.18;99955.25;5013505;28;20120;-66
2023/11/11 03:24:51;;;;;;;1.35;0.80;;;;;;;14.87;51.21;99959.81;5013668;28;20049;-66
2023/11/11 03:27:17;;;;;;;4.13;0.70;;;;;;;14.91;50.90;99971.06;4996339;28;20038;-66
2023/11/11 03:29:42;;;;;;;7.05;1.10;;;;;;;14.91;51.86;99976.44;4996459;28;20029;-66
2023/11/11 03:32:07;;;;;;;4.40;0.60;;;;;;;14.89;51.24;99970.41;5015226;28;20030;-65
2023/11/11 03:34:33;;;;;;;0.45;0.45;;;;;;;14.85;50.79;99977.19;5011642;28;20034;-65
2023/11/11 03:36:58;;;;;;;2.05;0.70;;;;;;;14.85;51.96;99983.38;5011860;28;20034;-66
2023/11/11 03:39:25;;;;;;;1.23;0.52;;;;;;;14.87;52.09;99983.22;4996828;28;20038;-67
2023/11/11 03:41:51;;;;;;;3.33;0.75;;;;;;;14.86;51.09;99984.22;5015561;28;20037;-66
2023/11/11 03:44:16;;;;;;;3.92;0.80;;;;;;;14.83;51.19;99984.59;5014942;28;20489;-65
2023/11/11 03:46:41;;;;;;;2.15;0.88;;;;;;;14.85;51.45;99990.66;5013576;28;20041;-67
2023/11/11 03:49:07;;;;;;;3.25;0.60;;;;;;;14.84;51.55;99997.91;5013419;28;20121;-66
2023/11/11 03:51:32;;;;;;;0.57;0.57;;;;;;;14.84;51.89;100018.63;4981048;28;20057;-66
2023/11/11 03:53:57;;;;;;;2.38;0.80;;;;;;;14.76;52.52;99994.41;4983463;28;20041;-73
2023/11/11 03:56:25;;;;;;;1.73;0.50;;;;;;;14.67;52.03;100004.38;5018335;28;20099;-71
2023/11/11 03:58:51;;;;;;;2.17;0.40;;;;;;;14.56;51.44;100005.63;5016806;28;20045;-71
2023/11/11 04:01:16;;;;;;;1.90;0.30;;;;;;;14.47;51.86;100009.34;4983058;28;20385;-71
2023/11/11 04:03:43;;;;;;;0.73;0.65;;;;;;;14.42;51.73;100013.59;4995448;28;20022;-69
2023/11/11 04:06:09;;;;;;;6.78;1.02;;;;;;;14.38;53.02;100014.94;4996053;28;20038;-69
2023/11/11 04:08:35;;;;;;;2.50;1.52;;;;;;;14.37;52.63;100016.81;4995320;28;20030;-69
2023/11/11 04:11:07;;;;;;;2.28;1.58;;;;;;;14.37;52.92;100026.75;4995469;28;20044;-68
2023/11/11 04:13:42;;;;;;;2.65;1.67;;;;;;;14.36;52.98;100030.44;5012862;28;20580;-67
2023/11/11 04:16:11;;;;;;;6.80;2.60;;;;;;;14.35;52.42;100026.91;4995586;28;20057;-67
2023/11/11 04:18:37;;;;;;;7.95;2.95;;;;;;;14.33;51.55;100036.19;4995739;28;20464;-67
2023/11/11 04:21:03;;;;;;;7.18;2.30;;;;;;;14.35;51.70;100045.75;4997820;28;20394;-67
2023/11/11 04:23:29;;;;;;;5.57;2.90;;;;;;;14.36;52.10;100041.22;4999228;28;20501;-66
2023/11/11 04:25:58;;;;;;;4.75;2.35;;;;;;;14.37;52.42;100049.16;4999310;28;20033;-66
2023/11/11 04:28:24;;;;;;;5.95;2.00;;;;;;;14.40;52.89;100054.19;4982622;28;20038;-66
2023/11/11 04:30:50;;;;;;;6.30;2.08;;;;;;;14.42;51.60;100045.91;5016764;28;20030;-66
2023/11/11 04:33:22;;;;;;;5.00;1.70;;;;;;;14.43;51.72;100053.81;4983012;28;20033;-57
2023/11/11 04:35:50;;;;;;;9.65;2.10;;;;;;;14.42;51.59;100052.16;5000111;28;20516;-57
2023/11/11 04:38:16;;;;;;;8.45;1.63;;;;;;;14.43;52.77;100066.47;4999041;28;20084;-57
2023/11/11 04:40:42;;;;;;;3.85;1.45;;;;;;;14.42;52.16;100068.31;4998899;28;20045;-57
2023/11/11 04:43:07;;;;;;;4.78;1.63;;;;;;;14.41;51.71;100065.78;5016367;28;20037;-57
2023/11/11 04:45:33;;;;;;;2.28;1.38;;;;;;;14.44;51.08;100077.06;5016296;28;20034;-57
2023/11/11 04:47:58;;;;;;;2.55;1.55;;;;;;;14.40;51.22;100081.13;4998796;28;20571;-57
2023/11/11 04:50:24;;;;;;;2.22;1.52;;;;;;;14.40;52.50;100083.84;4998714;28;20037;-57
2023/11/11 04:52:50;;;;;;;1.67;1.42;;;;;;;14.39;52.31;100084.84;4999067;28;20111;-57
2023/11/11 04:55:15;;;;;;;7.35;1.73;;;;;;;14.38;52.49;100087.69;5016036;28;20065;-57
2023/11/11 04:57:40;;;;;;;2.75;1.50;;;;;;;14.38;51.54;100082.28;4998704;28;20128;-57
2023/11/11 05:00:10;;;;;;;6.88;1.65;;;;;;;14.37;52.31;100073.41;5016360;28;20062;-57
2023/11/11 05:02:36;;;;;;;5.53;1.80;;;;;;;14.28;50.98;100077.06;4998535;28;20060;-57
2023/11/11 05:05:01;;;;;;;2.35;1.30;;;;;;;14.32;52.61;100080.31;4998607;28;20034;-57
2023/11/11 05:07:27;;;;;;;3.47;1.90;;;;;;;14.27;52.32;100088.84;4998368;28;20049;-57
2023/11/11 05:09:52;;;;;;;2.35;2.10;;;;;;;14.27;51.42;100086.16;4998518;28;20026;-57
2023/11/11 05:12:17;;;;;;;4.05;1.92;;;;;;;14.24;52.48;100085.66;4998268;28;20564;-57
2023/11/11 05:14:43;;;;;;;7.75;2.08;;;;;;;14.24;52.35;100094.59;5015772;28;20496;-57
2023/11/11 05:17:09;;;;;;;3.85;1.95;;;;;;;14.23;52.46;100095.63;5015786;28;20509;-57
2023/11/11 05:19:34;;;;;;;5.07;2.00;;;;;;;14.19;51.28;100096.94;5015610;28;20037;-57
2023/11/11 05:22:01;;;;;;;6.00;2.20;;;;;;;14.20;52.15;100106.72;5015582;28;20421;-57
2023/11/11 05:24:27;;;;;;;4.32;2.42;;;;;;;14.13;52.13;100089.53;5015879;28;20046;-57
2023/11/11 05:26:52;;;;;;;3.72;2.15;;;;;;;14.17;50.93;100107.06;4998084;28;20029;-57
2023/11/11 05:29:18;;;;;;;4.15;2.38;;;;;;;14.15;50.61;100110.94;5015495;28;20034;-57
2023/11/11 05:31:46;;;;;;;7.10;2.75;;;;;;;14.14;51.62;100112.78;5015086;28;20038;-57
2023/11/11 05:34:11;;;;;;;11.30;3.10;;;;;;;14.12;51.08;100113.97;5015535;28;20038;-57
2023/11/11 05:36:36;;;;;;;3.72;2.40;;;;;;;14.10;51.84;100121.38;4997866;28;20604;-57
2023/11/11 05:39:02;;;;;;;4.63;2.28;;;;;;;14.09;52.07;100120.53;5015333;28;20041;-57
2023/11/11 05:41:29;;;;;;;8.30;2.72;;;;;;;14.09;52.25;100122.38;5015445;28;20179;-57
2023/11/11 05:43:55;;;;;;;6.38;2.78;;;;;;;14.06;51.39;100120.03;4981942;28;20485;-57
2023/11/11 05:46:20;;;;;;;5.10;3.15;;;;;;;14.07;50.95;100122.53;4997933;28;20049;-57
2023/11/11 05:48:46;;;;;;;6.65;2.85;;;;;;;14.03;51.21;100121.22;5015233;28;20038;-56
2023/11/11 05:51:15;;;;;;;8.95;3.70;;;;;;;14.03;51.18;100131.97;5015252;28;20045;-57
2023/11/11 05:53:40;;;;;;;3.85;3.08;;;;;;;13.95;51.57;100132.84;5014998;28;20041;-57
2023/11/11 05:56:08;;;;;;;8.68;3.78;;;;;;;13.93;51.80;100139.41;5014746;28;20113;-57
2023/11/11 05:58:33;;;;;;;8.07;3.78;;;;;;;13.89;50.49;100146.97;5015007;28;20038;-57
2023/11/11 06:00:59;;;;;;;6.00;3.70;;;;;;;13.88;50.61;100144.41;4981465;28;20060;-57
2023/11/11 06:03:25;;;;;;;13.23;4.75;;;;;;;13.84;51.53;100143.94;5015200;28;20040;-57
2023/11/11 06:05:52;;;;;;;5.90;3.10;;;;;;;13.84;51.28;100148.47;5014987;28;20042;-57
2023/11/11 06:08:19;;;;;;;11.02;4.20;;;;;;;13.81;51.98;100143.41;5013735;28;20111;-57
2023/11/11 06:10:44;;;;;;;5.05;3.58;;;;;;;13.80;51.37;100152.47;5014727;28;20084;-56
2023/11/11 06:13:10;;;;;;;7.07;3.63;;;;;;;13.79;52.00;100151.63;5014782;28;20030;-57
2023/11/11 06:15:36;;;;;;;7.32;3.83;;;;;;;13.79;50.77;100153.50;5014597;28;20125;-57
2023/11/11 06:18:02;;;;;;;10.32;4.25;;;;;;;13.78;50.88;100154.50;4997178;28;20038;-57
2023/11/11 06:20:33;;;;;;;11.65;4.55;;;;;;;13.76;50.60;100157.34;5014515;28;20058;-57
2023/11/11 06:22:59;;;;;;;8.27;3.72;;;;;;;13.75;51.10;100154.84;5014452;28;20034;-57
2023/11/11 06:25:24;;;;;;;13.85;4.97;;;;;;;13.76;51.54;100156.53;5014465;28;20036;-57
2023/11/11 06:27:53;;;;;;;14.68;5.30;;;;;;;13.71;51.51;100165.09;4996971;28;20041;-57
2023/11/11 06:30:22;;;;;;;9.95;4.15;;;;;;;13.71;50.77;100159.72;5014438;28;20038;-57
2023/11/11 06:32:50;;;;;;;16.30;5.03;;;;;;;13.70;51.97;100167.97;4981255;28;20049;-57
2023/11/11 06:35:16;;;;;;;9.57;4.63;;;;;;;13.69;51.25;100169.81;5014509;28;20033;-57
2023/11/11 06:37:41;;;;;;;14.73;4.70;;;;;;;13.69;51.20;100177.03;5014495;28;20030;-57
2023/11/11 06:40:08;;;;;;;12.48;5.13;;;;;;;13.68;50.69;100172.69;4997001;28;20520;-57
2023/11/11 06:42:34;;;;;;;8.43;4.50;;;;;;;13.67;51.60;100173.66;5013630;28;20060;-57
2023/11/11 06:45:00;;;;;;;10.02;4.93;;;;;;;13.70;50.81;100176.88;5014335;28;20512;-57
2023/11/11 06:47:25;;;;;;;11.57;4.90;;;;;;;13.71;51.74;100175.00;4996555;28;20033;-57
2023/11/11 06:49:50;;;;;;;12.20;5.93;;;;;;;13.72;52.18;100182.09;5014062;28;20038;-57
2023/11/11 06:52:16;;;;;;;9.35;4.82;;;;;;;13.74;50.84;100185.44;4996627;28;20030;-57
2023/11/11 06:54:41;;;;;;;9.80;4.35;;;;;;;13.75;51.61;100193.38;4996251;28;20382;-57
2023/11/11 06:57:06;;;;;;;11.70;4.85;;;;;;;13.77;52.26;100196.72;4996508;28;20038;-57
2023/11/11 06:59:32;;;;;;;13.85;5.30;;;;;;;13.71;52.07;100196.53;4996312;28;20042;-60
2023/11/11 07:01:58;;;;;;;14.25;6.15;;;;;;;13.80;52.40;100209.00;5014127;28;20097;-57
2023/11/11 07:04:23;;;;;;;10.30;4.70;;;;;;;13.81;51.31;100216.09;4997170;28;20018;-57
2023/11/11 07:06:48;;;;;;;12.52;4.63;;;;;;;13.85;50.81;100220.13;5015821;28;20049;-57
2023/11/11 07:09:14;;;;;;;7.75;3.80;;;;;;;13.87;51.15;100218.13;4998484;28;20072;-56
2023/11/11 07:11:39;;;;;;;13.15;4.75;;;;;;;13.89;51.41;100224.19;4981812;28;20072;-57
2023/11/11 07:14:06;;;;;;;8.85;4.90;;;;;;;13.91;52.11;100219.47;5014807;28;20034;-57
2023/11/11 07:16:33;;;;;;;14.48;4.95;;;;;;;13.91;51.18;100230.25;5014849;28;20025;-57
2023/11/11 07:18:58;;;;;;;14.25;4.35;;;;;;;13.92;50.63;100232.78;5014850;28;20059;-57
2023/11/11 07:21:24;;;;;;;14.05;4.93;;;;;;;13.95;50.96;100234.31;4995778;28;20049;-57
2023/11/11 07:23:55;;;;;;;15.77;5.00;;;;;;;13.98;51.60;100228.59;5013565;28;20030;-57
2023/11/11 07:26:20;;;;;;;9.10;4.28;;;;;;;13.97;50.43;100222.34;4996256;28;20480;-57
2023/11/11 07:28:46;;;;;;;16.00;4.50;;;;;;;13.96;52.37;100233.28;5013585;28;20021;-58
2023/11/11 07:31:19;;;;;;;6.95;4.18;;;;;;;13.98;51.88;100231.28;4995764;28;20022;-58
2023/11/11 07:33:45;;;;;;;12.10;5.05;;;;;;;13.98;51.52;100226.75;4979866;28;20037;-58
2023/11/11 07:36:11;;;;;;;10.70;4.13;;;;;;;14.00;51.90;100234.63;5013511;28;20034;-57
2023/11/11 07:38:39;;;;;;;16.52;4.45;;;;;;;14.04;52.01;100236.00;4995812;28;20503;-57
2023/11/11 07:41:04;;;;;;;10.70;4.35;;;;;;;14.04;51.90;100241.38;5013391;28;20038;-58
2023/11/11 07:43:30;;;;;;;12.60;4.90;;;;;;;14.08;51.56;100241.88;4995646;28;20056;-57
2023/11/11 07:45:56;;;;;;;11.02;4.93;;;;;;;14.17;51.55;100243.59;5013322;28;20485;-58
2023/11/11 07:48:21;;;;;;;13.00;3.90;;;;;;;14.17;52.09;100249.81;4995886;28;20034;-58
2023/11/11 07:50:47;;;;;;;7.25;4.20;;;;;;;14.23;51.07;100251.84;4995552;28;20079;-57
2023/11/11 07:53:15;;;;;;;7.53;3.97;;;;;;;14.25;50.48;100249.81;5013256;28;20074;-57
2023/11/11 07:55:41;;;;;;;10.00;3.35;;;;;;;14.28;51.78;100254.88;4979505;28;20037;-58
2023/11/11 07:58:06;;;;;;;11.05;4.90;;;;;;;14.31;51.46;100251.84;4995450;28;20084;-57
2023/11/11 08:00:33;;;;;;;14.30;4.80;;;;;;;14.34;51.50;100246.16;4995588;28;20112;-57
2023/11/11 08:03:03;;;;;;;6.43;3.65;;;;;;;14.38;50.13;100254.75;5013378;28;20128;-57
2023/11/11 08:05:28;;;;;;;14.02;4.05;;;;;;;14.41;50.72;100257.94;4995641;28;20034;-58
2023/11/11 08:07:57;;;;;;;11.18;3.90;;;;;;;14.51;51.42;100261.34;5012634;28;20389;-58
2023/11/11 08:10:23;;;;;;;17.40;4.60;;;;;;;14.56;50.83;100261.66;4995672;28;20037;-57
2023/11/11 08:12:51;;;;;;;15.98;4.13;;;;;;;14.63;49.97;100266.38;4995320;28;20034;-58
2023/11/11 08:15:16;;;;;;;8.00;4.03;;;;;;;14.73;50.31;100261.66;5012973;28;20034;-58
2023/11/11 08:17:45;;;;;;;11.40;5.28;;;;;;;14.85;51.59;100263.81;4995287;28;20026;-57
2023/11/11 08:20:11;;;;;;;9.85;4.15;;;;;;;14.96;50.25;100259.94;4995125;28;20054;-58
2023/11/11 08:22:39;;;;;;;12.73;4.30;;;;;;;15.05;50.95;100265.13;5014867;28;20030;-57
2023/11/11 08:25:07;;;;;;;7.25;4.00;;;;;;;15.14;49.94;100258.72;5000468;28;20088;-57
2023/11/11 08:27:32;;;;;;;8.48;3.72;;;;;;;15.23;49.62;100262.25;5016151;28;20034;-57
2023/11/11 08:29:59;;;;;;;11.00;3.78;;;;;;;15.32;50.47;100261.22;4998416;28;20416;-58
2023/11/11 08:32:24;;;;;;;11.15;3.95;;;;;;;15.44;50.46;100265.19;5015873;28;20040;-58
2023/11/11 08:34:50;;;;;;;7.78;3.50;;;;;;;15.57;50.16;100257.44;4996644;28;20034;-58
2023/11/11 08:37:15;;;;;;;12.60;3.60;;;;;;;15.70;49.47;100262.25;4995094;28;20125;-58
2023/11/11 08:39:41;;;;;;;9.02;3.72;;;;;;;15.83;50.22;100264.41;5012950;28;20105;-57
2023/11/11 08:42:07;;;;;;;8.50;4.38;;;;;;;16.00;49.42;100260.56;4979009;28;20387;-58
2023/11/11 08:44:32;;;;;;;8.35;3.88;;;;;;;16.19;49.77;100265.53;5012747;28;20038;-58
2023/11/11 08:46:57;;;;;;;8.05;3.60;;;;;;;16.37;48.77;100268.78;4995384;28;20061;-58
2023/11/11 08:49:23;;;;;;;9.05;3.22;;;;;;;16.52;49.18;100266.97;4995071;28;20034;-58
2023/11/11 08:51:49;;;;;;;12.77;3.55;;;;;;;16.67;49.15;100264.34;5012691;28;20049;-58
2023/11/11 08:54:15;;;;;;;9.50;3.55;;;;;;;16.82;48.67;100274.19;4994780;28;20042;-58
2023/11/11 08:56:42;;;;;;;10.40;3.17;;;;;;;16.98;48.34;100269.63;5012514;28;20505;-58
2023/11/11 08:59:08;;;;;;;13.85;3.53;;;;;;;17.12;48.52;100280.47;4995347;28;20049;-58
2023/11/11 09:01:34;;;;;;;10.43;3.38;;;;;;;17.26;47.76;100289.63;4994895;28;20053;-58
2023/11/11 09:03:59;;;;;;;9.50;3.38;;;;;;;17.45;47.78;100289.09;5012416;28;20076;-57
2023/11/11 09:06:24;;;;;;;7.70;3.15;;;;;;;17.61;48.36;100280.81;5013084;28;20061;-56
2023/11/11 09:08:49;;;;;;;9.88;3.95;;;;;;;17.84;48.00;100286.09;5015979;28;20038;-58
2023/11/11 09:11:16;;;;;;;7.40;3.03;;;;;;;18.08;48.38;100279.53;5016012;28;20045;-57
2023/11/11 09:13:41;;;;;;;8.02;2.70;;;;;;;18.35;46.71;100279.63;5015827;28;20100;-57
2023/11/11 09:16:07;;;;;;;6.97;4.05;;;;;;;18.66;47.01;100278.47;5016062;28;20508;-57
2023/11/11 09:18:33;;;;;;;9.20;3.75;;;;;;;19.05;46.34;100279.66;4998714;28;20460;-58
2023/11/11 09:20:59;;;;;;;5.93;3.33;;;;;;;19.21;46.72;100274.97;4998206;28;20077;-57
2023/11/11 09:23:25;;;;;;;5.88;3.38;;;;;;;19.71;45.73;100270.06;4982166;28;20434;-59
2023/11/11 09:25:50;;;;;;;5.15;2.58;;;;;;;19.84;45.48;100277.47;4998292;28;20038;-56
2023/11/11 09:28:16;;;;;;;6.40;2.42;;;;;;;20.30;45.34;100267.59;4997875;28;20034;-59
2023/11/11 09:30:42;;;;;;;6.50;2.92;;;;;;;20.61;44.79;100261.56;5015535;28;20489;-57
2023/11/11 09:33:08;;;;;;;7.95;3.67;;;;;;;20.99;44.78;100269.13;4972184;28;20177;-57
2023/11/11 09:35:34;;;;;;;7.15;2.60;;;;;;;21.29;43.47;100268.50;4962307;28;20097;-57
2023/11/11 09:37:59;;;;;;;6.72;2.72;;;;;;;21.62;44.00;100254.78;4978299;28;20037;-57
2023/11/11 09:40:25;;;;;;;7.15;2.60;;;;;;;21.91;43.10;100267.09;4978411;28;20180;-57
2023/11/11 09:42:50;;;;;;;6.57;2.75;;;;;;;22.09;43.06;100259.00;4978516;28;20030;-57
2023/11/11 09:45:15;;;;;;;6.78;2.42;;;;;;;22.40;42.92;100266.38;4995567;28;20030;-57
2023/11/11 09:47:42;;;;;;;8.73;3.53;;;;;;;22.67;42.49;100272.56;4978436;28;20502;-57
2023/11/11 09:50:10;;;;;;;9.35;2.65;;;;;;;22.87;42.34;100265.03;4978222;28;20117;-59
2023/11/11 09:52:35;;;;;;;5.90;2.70;;;;;;;23.11;41.50;100264.19;4978425;28;20097;-58
2023/11/11 09:55:01;;;;;;;5.53;2.42;;;;;;;23.34;41.13;100258.91;4978066;28;20038;-57
2023/11/11 09:57:29;;;;;;;5.97;2.58;;;;;;;23.50;41.35;100269.31;4978001;28;20512;-57
2023/11/11 09:59:56;;;;;;;7.55;1.95;;;;;;;23.69;40.62;100268.25;4978055;28;20122;-57
2023/11/11 10:02:22;;;;;;;6.38;2.55;;;;;;;23.92;41.16;100277.66;4977995;28;20061;-58
2023/11/11 10:04:47;;;;;;;3.33;1.67;;;;;;;24.07;40.54;100275.34;4995263;28;20050;-57
2023/11/11 10:07:13;;;;;;;5.57;2.30;;;;;;;24.24;40.22;100273.66;4995043;28;20470;-57
2023/11/11 10:09:39;;;;;;;6.15;2.65;;;;;;;24.31;40.34;100266.22;4977905;28;20045;-58
2023/11/11 10:12:05;;;;;;;4.05;2.67;;;;;;;24.40;39.89;100270.28;4977673;28;20031;-58
2023/11/11 10:14:32;;;;;;;4.95;1.75;;;;;;;24.55;39.60;100272.59;4994837;28;20062;-57
2023/11/11 10:17:02;;;;;;;9.90;2.10;;;;;;;24.66;39.19;100280.00;4977786;28;20398;-58
2023/11/11 10:19:28;;;;;;;8.85;1.75;;;;;;;24.82;39.06;100282.94;4969946;28;20474;-57
2023/11/11 10:21:59;;;;;;;4.93;1.67;;;;;;;24.93;38.71;100281.28;4973855;28;20063;-57
2023/11/11 10:24:25;;;;;;;5.43;1.70;;;;;;;24.93;38.79;100285.94;4975197;28;20041;-57
2023/11/11 10:26:52;;;;;;;7.03;1.95;;;;;;;24.88;39.03;100295.69;4973865;28;20441;-57
2023/11/11 10:29:17;;;;;;;2.55;1.80;;;;;;;24.30;39.34;100286.44;4975221;28;20038;-57
2023/11/11 10:31:47;;;;;;;7.40;2.60;;;;;;;24.10;39.19;100299.53;4975196;28;20031;-58
2023/11/11 10:34:12;;;;;;;5.22;2.28;;;;;;;23.95;39.08;100299.94;4975368;28;20035;-58
2023/11/11 10:36:42;;;;;;;3.60;2.05;;;;;;;24.09;38.79;100300.59;4974235;28;20161;-57
2023/11/11 10:39:11;;;;;;;10.48;2.38;;;;;;;24.37;38.67;100297.31;4975322;28;20511;-56
2023/11/11 10:41:37;;;;;;;4.60;1.90;;;;;;;24.48;38.43;100294.63;4975247;28;20042;-57
2023/11/11 10:44:07;;;;;;;3.08;1.48;;;;;;;24.60;37.87;100298.22;4974249;28;20114;-57
2023/11/11 10:46:36;;;;;;;4.10;1.70;;;;;;;24.66;38.08;100296.44;4942822;28;20046;-58
2023/11/11 10:49:04;;;;;;;5.55;1.98;;;;;;;24.73;38.01;100298.03;4974954;28;20049;-58
2023/11/11 10:51:29;;;;;;;7.65;1.75;;;;;;;24.84;37.87;100294.50;4974988;28;20061;-57
2023/11/11 10:53:56;;;;;;;5.70;1.85;;;;;;;24.68;37.89;100284.19;4973555;28;20407;-57
2023/11/11 10:56:22;;;;;;;4.22;1.45;;;;;;;24.69;37.61;100285.03;4974721;28;20513;-58
2023/11/11 10:58:48;;;;;;;3.80;1.65;;;;;;;24.94;37.61;100282.13;4973356;28;20050;-58
2023/11/11 11:01:13;;;;;;;5.43;1.85;;;;;;;24.17;38.45;100281.16;4974784;28;20475;-58
2023/11/11 11:03:39;;;;;;;3.92;1.50;;;;;;;23.60;38.58;100290.63;4973331;28;20494;-58
2023/11/11 11:06:10;;;;;;;4.47;1.48;;;;;;;23.07;39.42;100290.28;4957061;28;20077;-58
2023/11/11 11:08:49;;;;;;;8.30;1.80;;;;;;;22.88;38.82;100285.81;4973604;28;20034;-58
2023/11/11 11:11:31;;;;;;;3.33;1.23;;;;;;;22.79;39.06;100295.34;4957258;28;20117;-58
2023/11/11 11:14:04;;;;;;;6.97;1.98;;;;;;;22.76;38.46;100293.06;4992796;28;20030;-57
2023/11/11 11:16:29;;;;;;;4.72;1.45;;;;;;;22.28;39.64;100290.00;4992999;28;20023;-58
2023/11/11 11:18:56;;;;;;;5.40;1.50;;;;;;;22.29;39.73;100303.41;4992893;28;20041;-57
2023/11/11 11:21:22;;;;;;;5.20;1.85;;;;;;;22.92;38.97;100303.47;5004899;28;20121;-57